Time;durP1;ratioP1;P1;durP2;ratioP2;P2;SDS_P1;SDS_P2;PMS_P1;PMS_P2;Temp;Humidity;BMP_temperature;BMP_pressure;BME280_temperature;BME280_humidity;BME280_pressure;Samples;Min_cycle;Max_cycle;Signal;HPM_P1;HPM_P2
2024/01/25 00:02:17;;;;;;;37.63;6.47;;;7.70;99.90;;;;;;5073194;28;20398;-95
2024/01/25 00:04:43;;;;;;;38.38;5.68;;;7.70;99.90;;;;;;5071860;28;20437;-94
2024/01/25 00:07:09;;;;;;;33.50;5.85;;;7.60;99.90;;;;;;5074077;28;20430;-91
2024/01/25 00:09:41;;;;;;;36.22;5.93;;;7.70;99.90;;;;;;5072852;28;20890;-95
2024/01/25 00:12:15;;;;;;;38.70;6.30;;;7.80;99.90;;;;;;5074928;28;20414;-93
2024/01/25 00:14:43;;;;;;;38.10;6.43;;;7.40;99.90;;;;;;5057908;28;20412;-91
2024/01/25 00:17:09;;;;;;;35.67;6.53;;;7.40;99.90;;;;;;5071953;28;20420;-93
2024/01/25 00:19:41;;;;;;;40.47;7.53;;;7.40;99.90;;;;;;5073203;28;20634;-95
2024/01/25 00:22:09;;;;;;;39.88;7.07;;;7.20;99.90;;;;;;5071934;28;20496;-94
2024/01/25 00:24:38;;;;;;;33.83;6.22;;;7.40;99.90;;;;;;5092592;28;20410;-95
2024/01/25 00:27:03;;;;;;;34.72;6.05;;;7.20;99.90;;;;;;5071692;28;20426;-93
2024/01/25 00:29:30;;;;;;;34.13;6.38;;;7.20;99.90;;;;;;5073333;28;20405;-92
2024/01/25 00:31:57;;;;;;;36.45;6.15;;;7.00;99.90;;;;;;5072097;28;20860;-92
2024/01/25 00:34:24;;;;;;;35.05;5.82;;;7.30;99.90;;;;;;5072195;28;20402;-94
2024/01/25 00:36:50;;;;;;;38.13;5.70;;;7.10;99.90;;;;;;5072325;28;20457;-95
2024/01/25 00:39:16;;;;;;;38.17;6.00;;;7.10;99.90;;;;;;5088552;28;20932;-95
2024/01/25 00:41:50;;;;;;;36.22;6.43;;;7.00;99.90;;;;;;5071446;28;20398;-94
2024/01/25 00:44:16;;;;;;;39.92;6.95;;;7.10;99.90;;;;;;5071053;28;20507;-93
2024/01/25 00:46:43;;;;;;;37.17;6.25;;;7.00;99.90;;;;;;5072775;28;21050;-95
2024/01/25 00:49:09;;;;;;;35.90;6.00;;;7.00;99.90;;;;;;5070629;28;20445;-92
2024/01/25 00:51:36;;;;;;;32.60;5.75;;;6.90;99.90;;;;;;5071577;28;20765;-93
2024/01/25 00:54:02;;;;;;;38.90;5.80;;;6.90;99.90;;;;;;5071307;28;20727;-95
2024/01/25 00:56:28;;;;;;;41.33;6.70;;;6.90;99.90;;;;;;5070781;28;20764;-95
2024/01/25 00:58:54;;;;;;;39.78;6.75;;;6.80;99.90;;;;;;5089019;28;20410;-91
2024/01/25 01:01:22;;;;;;;39.47;6.15;;;6.80;99.90;;;;;;5070528;28;20417;-93
2024/01/25 01:03:52;;;;;;;37.83;6.45;;;6.80;99.90;;;;;;5089342;28;20410;-95
2024/01/25 01:06:20;;;;;;;36.58;6.20;;;6.80;99.90;;;;;;5070065;28;20417;-94
2024/01/25 01:08:46;;;;;;;34.92;5.57;;;6.80;99.90;;;;;;5071745;28;20413;-93
2024/01/25 01:11:12;;;;;;;31.55;5.28;;;6.80;99.90;;;;;;5070817;28;20402;-93
2024/01/25 01:13:37;;;;;;;39.03;6.63;;;6.80;99.90;;;;;;5070504;28;20970;-93
2024/01/25 01:16:03;;;;;;;36.97;5.87;;;6.80;99.90;;;;;;5071083;28;20438;-94
2024/01/25 01:18:29;;;;;;;32.95;5.93;;;6.70;99.90;;;;;;5069432;28;20409;-93
2024/01/25 01:20:58;;;;;;;36.47;5.23;;;6.60;99.90;;;;;;5072090;28;20754;-94
2024/01/25 01:23:23;;;;;;;33.83;5.47;;;6.80;99.90;;;;;;5070004;28;20475;-92
2024/01/25 01:25:49;;;;;;;38.28;6.43;;;6.60;99.90;;;;;;5071502;28;20905;-94
2024/01/25 01:28:15;;;;;;;37.85;6.43;;;6.70;99.90;;;;;;5070022;28;20483;-93
2024/01/25 01:30:41;;;;;;;37.43;5.63;;;6.40;99.90;;;;;;5070876;28;20477;-96
2024/01/25 01:33:10;;;;;;;37.45;6.05;;;7.00;99.90;;;;;;5070513;28;20399;-94
2024/01/25 01:35:36;;;;;;;39.78;7.00;;;6.60;99.90;;;;;;5070361;28;20769;-93
2024/01/25 01:38:02;;;;;;;38.22;6.45;;;7.30;99.90;;;;;;5071213;28;20406;-93
2024/01/25 01:40:28;;;;;;;34.78;6.55;;;6.50;99.90;;;;;;5070217;28;20539;-94
2024/01/25 01:43:01;;;;;;;42.42;6.82;;;6.60;99.90;;;;;;5072224;28;20398;-92
2024/01/25 01:45:29;;;;;;;37.22;6.57;;;6.70;99.90;;;;;;5087354;28;20864;-93
2024/01/25 01:47:56;;;;;;;37.90;5.90;;;6.40;99.90;;;;;;5071172;28;20426;-93
2024/01/25 01:50:23;;;;;;;39.58;6.82;;;6.80;99.90;;;;;;5070694;28;21114;-92
2024/01/25 01:52:49;;;;;;;40.40;6.57;;;6.70;99.90;;;;;;5069913;28;20791;-91
2024/01/25 01:55:16;;;;;;;45.80;6.97;;;6.80;99.90;;;;;;5071130;28;20405;-95
2024/01/25 01:57:46;;;;;;;40.35;6.68;;;6.30;99.90;;;;;;5069570;28;20402;-93
2024/01/25 02:00:16;;;;;;;36.75;6.30;;;6.60;99.90;;;;;;5071516;28;20449;-94
2024/01/25 02:02:42;;;;;;;43.35;8.20;;;6.60;99.90;;;;;;5069523;28;20409;-94
2024/01/25 02:05:08;;;;;;;40.38;6.28;;;6.60;99.90;;;;;;5070557;28;20546;-94
2024/01/25 02:07:34;;;;;;;38.65;6.07;;;6.60;99.90;;;;;;5070174;28;20433;-93
2024/01/25 02:10:00;;;;;;;43.15;6.57;;;6.60;99.90;;;;;;5070033;28;20485;-95
2024/01/25 02:12:26;;;;;;;38.80;6.70;;;6.70;99.90;;;;;;5071642;28;20406;-92
2024/01/25 02:14:52;;;;;;;40.67;6.47;;;6.90;99.90;;;;;;5070103;28;20398;-94
2024/01/25 02:17:17;;;;;;;38.57;6.43;;;6.40;99.90;;;;;;5070571;28;20410;-94
2024/01/25 02:19:43;;;;;;;38.70;6.63;;;7.00;99.90;;;;;;5069555;28;20402;-94
2024/01/25 02:22:16;;;;;;;40.80;6.80;;;6.40;99.90;;;;;;5072724;28;20410;-93
2024/01/25 02:24:42;;;;;;;43.03;6.65;;;6.90;99.90;;;;;;5069309;28;20414;-94
2024/01/25 02:27:08;;;;;;;41.67;6.85;;;6.70;99.90;;;;;;5070152;28;20583;-93
2024/01/25 02:29:33;;;;;;;42.92;7.15;;;6.50;99.90;;;;;;5070381;28;20463;-91
2024/01/25 02:31:59;;;;;;;44.90;6.70;;;7.00;99.90;;;;;;5069646;28;20432;-91
2024/01/25 02:34:25;;;;;;;41.67;6.47;;;6.20;99.90;;;;;;5069919;28;20406;-94
2024/01/25 02:36:50;;;;;;;45.65;6.40;;;6.50;99.90;;;;;;5086383;28;20401;-95
2024/01/25 02:39:16;;;;;;;47.93;7.43;;;6.70;99.90;;;;;;5070529;28;20409;-94
2024/01/25 02:41:42;;;;;;;38.87;6.80;;;6.50;99.90;;;;;;5068890;28;20398;-94
2024/01/25 02:44:08;;;;;;;37.70;6.33;;;6.50;99.90;;;;;;5072229;28;20431;-92
2024/01/25 02:46:34;;;;;;;47.23;7.50;;;6.50;99.90;;;;;;5069257;28;20413;-93
2024/01/25 02:48:59;;;;;;;38.43;6.60;;;6.50;99.90;;;;;;5069941;28;20489;-92
2024/01/25 02:51:25;;;;;;;42.65;7.93;;;6.40;99.90;;;;;;5070018;28;20409;-93
2024/01/25 02:53:51;;;;;;;42.05;6.95;;;6.30;99.90;;;;;;5052509;28;20412;-92
2024/01/25 02:56:16;;;;;;;41.63;6.17;;;6.70;99.90;;;;;;5070007;28;20476;-90
2024/01/25 02:58:42;;;;;;;43.70;6.30;;;6.70;99.90;;;;;;5085603;28;20398;-91
2024/01/25 03:01:08;;;;;;;46.55;7.05;;;6.20;99.90;;;;;;5087063;28;20504;-93
2024/01/25 03:03:33;;;;;;;37.58;6.25;;;6.20;99.90;;;;;;5085658;28;20594;-92
2024/01/25 03:06:00;;;;;;;38.33;6.03;;;6.30;99.90;;;;;;5072491;28;20414;-93
2024/01/25 03:08:25;;;;;;;44.90;7.05;;;6.30;99.90;;;;;;5073424;28;20417;-92
2024/01/25 03:10:51;;;;;;;50.50;7.25;;;6.40;99.90;;;;;;5073012;28;20413;-94
2024/01/25 03:13:17;;;;;;;44.93;7.07;;;6.70;99.90;;;;;;5073857;28;20409;-92
2024/01/25 03:15:43;;;;;;;48.03;6.60;;;6.30;99.90;;;;;;5072782;28;20881;-92
2024/01/25 03:18:09;;;;;;;48.70;7.13;;;6.30;99.90;;;;;;5074042;28;20463;-94
2024/01/25 03:20:35;;;;;;;41.20;6.20;;;5.90;99.90;;;;;;5072203;28;20496;-92
2024/01/25 03:23:01;;;;;;;40.90;6.20;;;6.10;99.90;;;;;;5073938;28;20446;-90
2024/01/25 03:25:27;;;;;;;45.45;6.07;;;6.10;99.90;;;;;;5072820;28;20463;-91
2024/01/25 03:27:52;;;;;;;45.97;6.77;;;6.20;99.90;;;;;;5072927;28;20426;-91
2024/01/25 03:30:18;;;;;;;36.35;5.50;;;6.00;99.90;;;;;;5089821;28;20945;-91
2024/01/25 03:32:45;;;;;;;43.65;6.22;;;6.00;99.90;;;;;;5072656;28;20426;-93
2024/01/25 03:35:11;;;;;;;42.43;6.87;;;6.30;99.90;;;;;;5073420;28;20492;-90
2024/01/25 03:37:37;;;;;;;41.77;6.70;;;6.10;99.90;;;;;;5071538;28;20433;-92
2024/01/25 03:40:03;;;;;;;43.30;6.30;;;6.00;99.90;;;;;;5090544;28;20500;-90
2024/01/25 03:42:29;;;;;;;36.80;6.05;;;5.90;99.90;;;;;;5071981;28;20406;-91
2024/01/25 03:44:55;;;;;;;46.47;7.37;;;5.90;99.90;;;;;;5073194;28;20945;-92
2024/01/25 03:47:20;;;;;;;46.22;5.95;;;6.20;99.90;;;;;;5089514;28;20425;-92
2024/01/25 03:49:46;;;;;;;43.30;6.67;;;5.80;99.90;;;;;;5072383;28;20402;-91
2024/01/25 03:52:11;;;;;;;47.37;6.37;;;5.80;99.90;;;;;;5072753;28;20989;-91
2024/01/25 03:54:37;;;;;;;45.50;6.10;;;6.10;99.90;;;;;;5071549;28;20493;-91
2024/01/25 03:57:03;;;;;;;43.28;6.53;;;6.20;99.90;;;;;;5078118;28;20429;-91
2024/01/25 03:59:29;;;;;;;41.95;6.07;;;5.80;99.90;;;;;;5071674;28;20477;-92
2024/01/25 04:01:54;;;;;;;48.87;7.73;;;5.90;99.90;;;;;;5072996;28;20501;-94
2024/01/25 04:04:20;;;;;;;48.00;7.77;;;5.70;99.90;;;;;;5071963;28;20422;-90
2024/01/25 04:06:46;;;;;;;44.47;6.95;;;5.80;99.90;;;;;;5072259;28;20493;-91
2024/01/25 04:09:13;;;;;;;51.80;7.57;;;6.00;99.90;;;;;;5072311;28;20854;-92
2024/01/25 04:11:38;;;;;;;43.20;6.47;;;5.60;99.90;;;;;;5071607;28;20405;-91
2024/01/25 04:14:05;;;;;;;43.17;6.33;;;5.60;99.90;;;;;;5072631;28;20469;-92
2024/01/25 04:16:31;;;;;;;37.78;6.18;;;5.60;99.90;;;;;;5070446;28;20391;-91
2024/01/25 04:18:57;;;;;;;51.20;7.55;;;5.80;99.90;;;;;;5072363;28;20409;-87
2024/01/25 04:21:23;;;;;;;47.67;6.33;;;5.80;99.90;;;;;;5071668;28;20423;-90
2024/01/25 04:23:48;;;;;;;44.38;6.65;;;5.50;99.90;;;;;;5072217;28;20446;-92
2024/01/25 04:26:16;;;;;;;44.97;6.80;;;5.50;99.90;;;;;;5071959;28;20417;-90
2024/01/25 04:28:42;;;;;;;49.03;7.50;;;5.40;99.90;;;;;;5070957;28;20417;-90
2024/01/25 04:31:08;;;;;;;46.97;7.33;;;5.30;99.90;;;;;;5072230;28;20501;-92
2024/01/25 04:33:33;;;;;;;44.53;7.20;;;5.30;99.90;;;;;;5071080;28;20535;-90
2024/01/25 04:35:59;;;;;;;44.63;6.97;;;5.20;99.90;;;;;;5089347;28;20406;-92
2024/01/25 04:38:25;;;;;;;43.03;6.93;;;5.20;99.90;;;;;;5070617;28;20839;-92
2024/01/25 04:40:51;;;;;;;48.40;6.63;;;5.30;99.90;;;;;;5071848;28;20490;-91
2024/01/25 04:43:16;;;;;;;49.00;7.53;;;5.10;99.90;;;;;;5071708;28;20405;-89
2024/01/25 04:45:42;;;;;;;45.63;6.82;;;5.10;99.90;;;;;;5071465;28;20964;-90
2024/01/25 04:48:08;;;;;;;56.80;7.57;;;5.30;99.90;;;;;;5071455;28;20430;-92
2024/01/25 04:50:34;;;;;;;50.53;7.75;;;5.10;99.90;;;;;;5071000;28;20398;-91
2024/01/25 04:53:02;;;;;;;51.17;7.40;;;5.10;99.90;;;;;;5072132;28;20402;-91
2024/01/25 04:55:28;;;;;;;42.35;6.78;;;5.30;99.90;;;;;;5070361;28;20920;-90
2024/01/25 04:57:53;;;;;;;49.45;7.32;;;5.00;99.90;;;;;;5071993;28;20459;-93
2024/01/25 05:00:22;;;;;;;47.78;6.95;;;5.10;99.90;;;;;;5070784;28;20920;-90
2024/01/25 05:02:48;;;;;;;47.20;7.57;;;5.10;99.90;;;;;;5070738;28;20428;-92
2024/01/25 05:05:14;;;;;;;43.90;6.90;;;5.20;99.90;;;;;;5071514;28;20429;-92
2024/01/25 05:07:41;;;;;;;54.47;7.20;;;5.40;99.90;;;;;;5070516;28;20433;-91
2024/01/25 05:10:07;;;;;;;50.30;7.28;;;5.30;99.90;;;;;;5071085;28;20429;-92
2024/01/25 05:12:33;;;;;;;56.85;7.28;;;5.00;99.90;;;;;;5070157;28;20413;-91
2024/01/25 05:14:59;;;;;;;61.70;7.10;;;5.30;99.90;;;;;;5088436;28;20406;-90
2024/01/25 05:17:24;;;;;;;53.53;7.83;;;5.00;99.90;;;;;;5075772;28;20412;-90
2024/01/25 05:19:50;;;;;;;48.47;7.40;;;5.00;99.90;;;;;;5088916;28;20436;-92
2024/01/25 05:22:16;;;;;;;47.63;6.90;;;5.20;99.90;;;;;;5087184;28;20840;-91
2024/01/25 05:24:42;;;;;;;53.50;7.75;;;5.20;99.90;;;;;;5069831;28;20402;-94
2024/01/25 05:27:08;;;;;;;51.25;7.43;;;5.20;99.90;;;;;;5069649;28;20636;-90
2024/01/25 05:29:33;;;;;;;44.85;7.10;;;4.90;99.90;;;;;;5069012;28;20485;-91
2024/01/25 05:31:59;;;;;;;55.23;8.27;;;4.90;99.90;;;;;;5087655;28;20910;-90
2024/01/25 05:34:25;;;;;;;49.33;7.30;;;4.90;99.90;;;;;;5069272;28;20410;-89
2024/01/25 05:36:51;;;;;;;47.43;7.20;;;5.10;99.90;;;;;;5067620;28;20413;-90
2024/01/25 05:39:17;;;;;;;51.85;7.60;;;4.90;99.90;;;;;;5086854;28;20398;-90
2024/01/25 05:41:44;;;;;;;46.25;7.05;;;5.00;99.90;;;;;;5070704;28;20398;-89
2024/01/25 05:44:12;;;;;;;53.78;7.07;;;4.70;99.90;;;;;;5070525;28;20445;-90
2024/01/25 05:46:38;;;;;;;48.47;7.20;;;4.60;99.90;;;;;;5069774;28;20418;-90
2024/01/25 05:49:03;;;;;;;47.67;7.28;;;5.00;99.90;;;;;;5070904;28;20467;-89
2024/01/25 05:51:29;;;;;;;55.28;7.75;;;5.10;99.90;;;;;;5069141;28;20851;-88
2024/01/25 05:53:55;;;;;;;53.90;6.57;;;4.50;99.90;;;;;;5068174;28;20423;-88
2024/01/25 05:56:20;;;;;;;51.13;7.97;;;4.70;99.90;;;;;;5069394;28;20800;-89
2024/01/25 05:58:46;;;;;;;56.53;7.18;;;4.40;99.90;;;;;;5070220;28;20402;-89
2024/01/25 06:01:12;;;;;;;53.60;6.93;;;4.50;99.90;;;;;;5070091;28;20983;-89
2024/01/25 06:03:37;;;;;;;48.23;6.47;;;4.30;99.90;;;;;;5069641;28;20402;-90
2024/01/25 06:06:03;;;;;;;57.60;7.60;;;4.30;99.90;;;;;;5070136;28;20409;-91
2024/01/25 06:08:29;;;;;;;59.90;7.35;;;4.20;99.90;;;;;;5085298;28;21008;-89
2024/01/25 06:10:54;;;;;;;53.42;7.00;;;4.10;99.90;;;;;;5070954;28;20418;-89
2024/01/25 06:13:20;;;;;;;56.10;7.23;;;4.20;99.90;;;;;;5069048;28;20417;-88
2024/01/25 06:15:46;;;;;;;56.73;7.80;;;4.40;99.90;;;;;;5070636;28;20394;-89
2024/01/25 06:18:11;;;;;;;54.20;7.22;;;4.00;99.90;;;;;;5069001;28;20426;-90
2024/01/25 06:20:37;;;;;;;51.28;6.95;;;4.00;99.90;;;;;;5069859;28;20409;-90
2024/01/25 06:23:02;;;;;;;53.10;7.00;;;3.90;99.90;;;;;;5070185;28;20799;-89
2024/01/25 06:25:30;;;;;;;61.65;7.90;;;3.90;99.90;;;;;;5069605;28;20406;-90
2024/01/25 06:27:57;;;;;;;60.30;8.65;;;3.90;99.90;;;;;;5069758;28;20436;-89
2024/01/25 06:30:23;;;;;;;58.40;7.90;;;3.80;99.90;;;;;;5069360;28;20547;-89
2024/01/25 06:32:49;;;;;;;48.53;7.10;;;4.10;99.90;;;;;;5070271;28;20495;-90
2024/01/25 06:35:14;;;;;;;61.53;8.33;;;3.80;99.90;;;;;;5085351;28;20394;-89
2024/01/25 06:37:40;;;;;;;58.97;7.70;;;4.10;99.90;;;;;;5070035;28;20484;-89
2024/01/25 06:40:06;;;;;;;53.22;7.10;;;4.00;99.90;;;;;;5072310;28;20405;-88
2024/01/25 06:42:32;;;;;;;57.05;6.97;;;3.80;99.90;;;;;;5073016;28;20401;-89
2024/01/25 06:44:58;;;;;;;53.10;7.17;;;3.70;99.90;;;;;;5073703;28;20750;-88
2024/01/25 06:47:23;;;;;;;59.35;7.60;;;4.00;99.90;;;;;;5072312;28;20426;-88
2024/01/25 06:49:51;;;;;;;73.23;11.03;;;3.70;99.90;;;;;;5074220;28;20809;-89
2024/01/25 06:52:17;;;;;;;47.40;6.78;;;3.60;99.90;;;;;;5072619;28;20847;-90
2024/01/25 06:54:43;;;;;;;65.88;9.18;;;3.60;99.90;;;;;;5073554;28;20393;-89
2024/01/25 06:57:09;;;;;;;52.13;8.87;;;3.60;99.90;;;;;;5072997;28;20402;-89
2024/01/25 06:59:34;;;;;;;51.90;8.17;;;3.80;99.90;;;;;;5073328;28;20917;-90
2024/01/25 07:02:02;;;;;;;48.17;8.10;;;3.50;99.90;;;;;;5073274;28;20429;-89
2024/01/25 07:04:28;;;;;;;58.97;9.85;;;3.40;99.90;;;;;;5071976;28;20413;-88
2024/01/25 07:06:54;;;;;;;51.58;8.90;;;3.40;99.90;;;;;;5073105;28;20398;-89
2024/01/25 07:09:20;;;;;;;45.55;8.23;;;3.30;99.90;;;;;;5071962;28;20436;-87
2024/01/25 07:11:46;;;;;;;47.05;8.10;;;3.30;99.90;;;;;;5090189;28;20390;-89
2024/01/25 07:14:11;;;;;;;50.08;7.63;;;3.20;99.90;;;;;;5071957;28;20438;-88
2024/01/25 07:16:37;;;;;;;48.08;7.32;;;3.20;99.90;;;;;;5070493;28;20426;-88
2024/01/25 07:19:04;;;;;;;50.60;7.72;;;3.20;99.90;;;;;;5072125;28;20409;-89
2024/01/25 07:21:32;;;;;;;65.00;9.13;;;3.10;99.90;;;;;;5071080;28;20398;-88
2024/01/25 07:24:00;;;;;;;55.35;8.57;;;3.10;99.90;;;;;;5071755;28;20519;-89
2024/01/25 07:26:26;;;;;;;60.65;10.52;;;3.10;99.90;;;;;;5069658;28;20402;-89
2024/01/25 07:28:57;;;;;;;55.20;9.60;;;3.10;99.90;;;;;;5072029;28;20469;-88
2024/01/25 07:31:27;;;;;;;53.95;10.35;;;3.00;99.90;;;;;;5070646;28;20427;-88
2024/01/25 07:33:53;;;;;;;65.10;9.60;;;3.00;99.90;;;;;;5071923;28;20402;-89
2024/01/25 07:36:19;;;;;;;53.97;9.60;;;3.20;99.90;;;;;;5071971;28;20402;-89
2024/01/25 07:38:46;;;;;;;58.00;9.47;;;3.00;99.90;;;;;;5072072;28;20441;-88
2024/01/25 07:41:13;;;;;;;62.85;10.98;;;3.00;99.90;;;;;;5072806;28;20471;-88
2024/01/25 07:43:39;;;;;;;65.97;13.60;;;3.00;99.90;;;;;;5071299;28;20398;-88
2024/01/25 07:46:04;;;;;;;66.38;10.68;;;3.10;99.90;;;;;;5072918;28;20398;-88
2024/01/25 07:48:30;;;;;;;67.63;9.20;;;3.20;99.90;;;;;;5071247;28;20417;-88
2024/01/25 07:50:56;;;;;;;56.83;8.68;;;3.10;99.90;;;;;;5071323;28;20918;-87
2024/01/25 07:53:22;;;;;;;74.72;9.40;;;3.20;99.90;;;;;;5071609;28;20402;-88
2024/01/25 07:55:48;;;;;;;68.38;9.25;;;3.40;99.90;;;;;;5071026;28;20918;-88
2024/01/25 07:58:15;;;;;;;68.30;9.98;;;3.20;99.90;;;;;;5089384;28;20441;-89
2024/01/25 08:00:41;;;;;;;63.47;10.13;;;3.20;99.90;;;;;;5071217;28;20762;-87
2024/01/25 08:03:07;;;;;;;61.63;11.57;;;3.60;99.90;;;;;;5089519;28;20914;-87
2024/01/25 08:05:32;;;;;;;64.90;12.15;;;3.20;99.90;;;;;;5071078;28;20482;-87
2024/01/25 08:07:58;;;;;;;62.25;11.90;;;3.30;99.90;;;;;;5071683;28;20551;-89
2024/01/25 08:10:24;;;;;;;65.97;10.27;;;3.30;99.90;;;;;;5070986;28;20402;-88
2024/01/25 08:12:49;;;;;;;68.72;11.13;;;3.40;99.90;;;;;;5071220;28;20900;-89
2024/01/25 08:15:15;;;;;;;63.25;10.02;;;3.50;99.90;;;;;;5071082;28;21003;-88
2024/01/25 08:17:41;;;;;;;60.08;9.43;;;3.50;99.90;;;;;;5070832;28;20410;-88
2024/01/25 08:20:08;;;;;;;70.85;9.45;;;3.50;99.90;;;;;;5071599;28;20777;-88
2024/01/25 08:22:34;;;;;;;60.80;9.43;;;3.50;99.90;;;;;;5087382;28;20397;-88
2024/01/25 08:24:59;;;;;;;70.43;9.90;;;3.60;99.90;;;;;;5071627;28;20414;-88
2024/01/25 08:27:25;;;;;;;73.93;11.20;;;3.60;99.90;;;;;;5070644;28;20461;-87
2024/01/25 08:29:51;;;;;;;71.93;10.93;;;3.60;99.90;;;;;;5070717;28;20394;-87
2024/01/25 08:32:16;;;;;;;77.90;10.95;;;3.70;99.90;;;;;;5070495;28;20409;-86
2024/01/25 08:34:42;;;;;;;70.70;12.43;;;3.70;99.90;;;;;;5086923;28;20550;-87
2024/01/25 08:37:07;;;;;;;70.13;13.00;;;3.70;99.90;;;;;;5067807;28;20406;-88
2024/01/25 08:39:33;;;;;;;58.97;10.55;;;3.70;99.90;;;;;;5049320;28;20430;-88
2024/01/25 08:42:03;;;;;;;74.20;10.98;;;3.80;99.90;;;;;;5070015;28;20414;-87
2024/01/25 08:44:29;;;;;;;67.07;11.65;;;3.90;99.90;;;;;;5068937;28;20406;-87
2024/01/25 08:46:54;;;;;;;59.07;11.07;;;3.90;99.90;;;;;;5069282;28;20412;-87
2024/01/25 08:49:20;;;;;;;66.87;10.90;;;4.00;99.90;;;;;;5069320;28;20452;-87
2024/01/25 08:51:45;;;;;;;64.63;10.18;;;4.00;99.90;;;;;;5069150;28;20452;-88
2024/01/25 08:54:11;;;;;;;65.90;10.50;;;4.10;99.90;;;;;;5069288;28;20920;-87
2024/01/25 08:56:37;;;;;;;69.10;10.50;;;4.40;99.90;;;;;;5068796;28;20463;-87
2024/01/25 08:59:02;;;;;;;60.30;9.98;;;4.20;99.90;;;;;;5069820;28;20398;-88
2024/01/25 09:01:28;;;;;;;60.43;9.90;;;4.30;99.90;;;;;;5068119;28;20541;-87
2024/01/25 09:03:53;;;;;;;63.77;9.67;;;4.40;99.90;;;;;;5069362;28;20471;-88
2024/01/25 09:06:19;;;;;;;64.25;9.88;;;4.60;99.90;;;;;;5069060;28;20394;-88
2024/01/25 09:08:45;;;;;;;57.93;10.20;;;4.60;99.90;;;;;;5068959;28;20521;-88
2024/01/25 09:11:10;;;;;;;52.70;9.23;;;4.70;99.90;;;;;;5069377;28;20406;-87
2024/01/25 09:13:36;;;;;;;55.90;9.90;;;4.70;99.90;;;;;;5068975;28;20932;-88
2024/01/25 09:16:02;;;;;;;60.90;10.50;;;4.80;99.90;;;;;;5068567;28;20409;-88
2024/01/25 09:18:27;;;;;;;61.20;9.93;;;4.90;99.90;;;;;;5085624;28;20776;-88
2024/01/25 09:20:53;;;;;;;64.00;10.63;;;4.90;99.90;;;;;;5087218;28;20398;-88
2024/01/25 09:23:30;;;;;;;60.70;10.35;;;5.00;99.90;;;;;;5105102;27;20381;-87
2024/01/25 09:25:56;;;;;;;60.53;10.53;;;5.30;99.90;;;;;;5101542;28;20922;-86
2024/01/25 09:28:22;;;;;;;62.88;10.75;;;5.40;99.90;;;;;;5084788;28;20394;-86
2024/01/25 09:30:47;;;;;;;50.97;10.35;;;5.20;99.90;;;;;;5084685;28;20412;-85
2024/01/25 09:33:14;;;;;;;52.63;10.47;;;5.20;99.90;;;;;;5084837;28;20417;-87
2024/01/25 09:35:40;;;;;;;64.82;10.98;;;5.30;99.90;;;;;;5084975;28;20437;-86
2024/01/25 09:38:06;;;;;;;62.72;11.60;;;5.30;99.90;;;;;;5083732;28;20437;-86
2024/01/25 09:40:33;;;;;;;64.22;11.45;;;5.30;99.90;;;;;;5085378;28;20437;-86
2024/01/25 09:42:59;;;;;;;63.20;12.00;;;5.50;99.90;;;;;;5084296;28;20434;-87
2024/01/25 09:45:25;;;;;;;62.28;10.75;;;5.40;99.90;;;;;;5085304;28;20416;-86
2024/01/25 09:47:50;;;;;;;57.95;10.52;;;5.40;99.90;;;;;;5102746;28;20900;-88
2024/01/25 09:50:16;;;;;;;52.78;10.43;;;5.50;99.90;;;;;;5085340;28;20428;-89
2024/01/25 09:52:54;;;;;;;55.28;10.10;;;5.50;99.90;;;;;;5086259;28;20907;-88
2024/01/25 09:55:24;;;;;;;56.13;11.00;;;5.60;99.90;;;;;;5102631;28;20923;-88
2024/01/25 09:57:54;;;;;;;53.83;10.82;;;5.60;99.90;;;;;;5103785;28;20465;-88
2024/01/25 10:00:21;;;;;;;45.63;10.35;;;5.40;99.90;;;;;;5085772;28;20409;-88
2024/01/25 10:02:51;;;;;;;54.42;10.10;;;5.70;99.90;;;;;;5086122;28;20464;-89
2024/01/25 10:05:18;;;;;;;51.92;10.95;;;5.70;99.90;;;;;;5086299;28;20405;-89
2024/01/25 10:07:45;;;;;;;49.93;10.73;;;5.80;99.90;;;;;;5085636;28;20401;-89
2024/01/25 10:10:12;;;;;;;52.58;9.55;;;5.90;99.90;;;;;;5085879;28;20919;-89
2024/01/25 10:12:42;;;;;;;50.38;10.13;;;5.90;99.90;;;;;;5085208;28;20405;-89
2024/01/25 10:15:09;;;;;;;52.67;9.57;;;6.00;99.90;;;;;;5086595;28;20458;-88
2024/01/25 10:17:35;;;;;;;44.80;8.60;;;6.10;99.90;;;;;;5085505;28;20425;-89
2024/01/25 10:20:00;;;;;;;47.88;8.75;;;6.40;99.90;;;;;;5086112;28;20912;-89
2024/01/25 10:22:27;;;;;;;39.97;7.32;;;6.60;99.90;;;;;;5085769;28;20796;-89
2024/01/25 10:24:55;;;;;;;43.53;8.57;;;6.80;99.90;;;;;;5102470;28;20397;-89
2024/01/25 10:27:22;;;;;;;40.70;8.02;;;7.20;99.90;;;;;;5085882;28;20417;-89
2024/01/25 10:29:50;;;;;;;40.03;8.70;;;7.20;99.90;;;;;;5084784;28;20397;-88
2024/01/25 10:32:16;;;;;;;41.00;8.07;;;7.40;99.90;;;;;;5086289;28;20410;-89
2024/01/25 10:34:42;;;;;;;39.72;7.93;;;7.70;99.90;;;;;;5071915;28;20440;-88
2024/01/25 10:37:08;;;;;;;34.17;7.88;;;8.00;99.90;;;;;;5072666;28;20405;-89
2024/01/25 10:39:34;;;;;;;37.03;7.90;;;8.30;99.90;;;;;;5072161;28;20889;-89
2024/01/25 10:42:01;;;;;;;41.97;7.63;;;8.70;99.90;;;;;;5071898;28;20422;-90
2024/01/25 10:44:27;;;;;;;36.17;7.18;;;8.70;99.90;;;;;;5072873;28;20409;-90
2024/01/25 10:46:54;;;;;;;42.60;7.85;;;8.60;99.90;;;;;;5071328;28;20474;-89
2024/01/25 10:49:21;;;;;;;35.63;7.67;;;8.40;99.90;;;;;;5073299;28;20402;-89
2024/01/25 10:51:48;;;;;;;39.13;7.57;;;8.40;99.90;;;;;;5071458;28;20857;-89
2024/01/25 10:54:15;;;;;;;33.92;6.78;;;8.70;99.90;;;;;;5072786;28;20893;-90
2024/01/25 10:56:46;;;;;;;38.97;7.25;;;8.30;99.90;;;;;;5072127;28;20457;-89
2024/01/25 10:59:12;;;;;;;40.22;7.65;;;8.40;99.90;;;;;;5071775;28;20410;-88
2024/01/25 11:01:37;;;;;;;39.08;7.53;;;8.70;99.90;;;;;;5071951;28;20547;-89
2024/01/25 11:04:12;;;;;;;40.83;8.20;;;8.90;99.90;;;;;;5071339;28;20852;-89
2024/01/25 11:06:38;;;;;;;43.00;8.60;;;8.70;99.90;;;;;;5069194;28;20411;-90
2024/01/25 11:09:08;;;;;;;42.97;7.78;;;8.80;99.90;;;;;;5085086;28;20400;-89
2024/01/25 11:11:37;;;;;;;36.97;7.40;;;8.70;99.90;;;;;;5085964;28;20395;-89
2024/01/25 11:14:03;;;;;;;34.90;6.60;;;8.80;99.90;;;;;;5085401;28;20549;-91
2024/01/25 11:16:31;;;;;;;33.40;6.20;;;8.90;99.90;;;;;;5084790;28;20436;-90
2024/01/25 11:19:05;;;;;;;32.88;6.65;;;8.90;99.90;;;;;;5086933;28;20413;-90
2024/01/25 11:21:44;;;;;;;35.55;6.90;;;9.30;99.90;;;;;;5070720;28;20422;-90
2024/01/25 11:24:19;;;;;;;32.85;6.75;;;9.60;99.90;;;;;;5072675;28;20796;-90
2024/01/25 11:26:46;;;;;;;33.17;6.65;;;9.40;99.90;;;;;;5071233;28;20422;-91
2024/01/25 11:29:20;;;;;;;31.40;6.87;;;9.60;99.90;;;;;;5071735;28;20422;-91
2024/01/25 11:31:47;;;;;;;34.33;7.68;;;9.60;99.90;;;;;;5071834;28;20402;-89
2024/01/25 11:34:15;;;;;;;37.15;7.57;;;9.70;99.90;;;;;;5070631;28;20402;-91
2024/01/25 11:36:41;;;;;;;32.15;6.78;;;9.80;99.90;;;;;;5071757;28;20916;-90
2024/01/25 11:39:09;;;;;;;32.53;6.60;;;9.80;99.90;;;;;;5070722;28;20410;-93
2024/01/25 11:41:35;;;;;;;31.08;6.18;;;10.40;99.90;;;;;;5072132;28;20465;-91
2024/01/25 11:44:04;;;;;;;35.88;6.72;;;9.80;99.90;;;;;;5071019;28;20413;-91
2024/01/25 11:46:33;;;;;;;35.00;7.03;;;9.60;99.90;;;;;;5070645;28;20856;-90
2024/01/25 11:48:58;;;;;;;31.97;6.57;;;9.70;99.90;;;;;;5071602;28;20418;-90
2024/01/25 11:51:24;;;;;;;34.77;6.33;;;9.40;99.90;;;;;;5070532;28;20811;-90
2024/01/25 11:53:50;;;;;;;34.13;6.55;;;9.30;99.90;;;;;;5071986;28;20477;-90
2024/01/25 11:56:27;;;;;;;38.47;7.85;;;9.20;99.90;;;;;;5070726;28;20406;-90
2024/01/25 11:58:56;;;;;;;36.43;7.20;;;9.10;99.90;;;;;;5071445;28;20507;-90
2024/01/25 12:01:22;;;;;;;38.28;7.35;;;9.00;99.90;;;;;;5070403;28;20414;-88
2024/01/25 12:03:47;;;;;;;34.30;6.72;;;8.90;99.90;;;;;;5070784;28;20409;-90
2024/01/25 12:06:13;;;;;;;39.85;8.32;;;9.00;99.90;;;;;;5071087;28;20455;-88
2024/01/25 12:08:39;;;;;;;35.97;7.45;;;9.00;99.90;;;;;;5069789;28;20480;-90
2024/01/25 12:11:05;;;;;;;35.33;9.07;;;9.10;99.90;;;;;;5071362;28;20398;-88
2024/01/25 12:13:49;;;;;;;35.50;6.82;;;9.00;99.90;;;;;;5069507;28;20422;-89
2024/01/25 12:16:15;;;;;;;31.02;6.47;;;9.30;99.90;;;;;;5071165;28;20414;-89
2024/01/25 12:18:43;;;;;;;32.40;6.90;;;9.40;99.90;;;;;;5070374;28;20402;-89
2024/01/25 12:21:08;;;;;;;28.17;6.32;;;9.30;99.90;;;;;;5070016;28;20414;-89
2024/01/25 12:23:36;;;;;;;29.07;6.07;;;9.80;99.90;;;;;;5070690;28;20416;-91
2024/01/25 12:26:04;;;;;;;33.92;6.53;;;9.70;99.90;;;;;;5070380;28;20422;-90
2024/01/25 12:28:32;;;;;;;30.40;6.88;;;9.70;99.90;;;;;;5071216;28;20477;-89
2024/01/25 12:30:58;;;;;;;30.73;6.87;;;9.70;99.90;;;;;;5069419;28;20460;-91
2024/01/25 12:33:24;;;;;;;29.80;6.30;;;9.80;99.90;;;;;;5071101;28;21120;-89
2024/01/25 12:35:50;;;;;;;36.95;7.53;;;9.40;99.90;;;;;;5070166;28;20398;-90
2024/01/25 12:38:15;;;;;;;33.93;7.00;;;9.40;99.90;;;;;;5070585;28;20405;-90
2024/01/25 12:40:43;;;;;;;35.50;7.50;;;9.30;99.90;;;;;;5070307;28;20413;-89
2024/01/25 12:43:09;;;;;;;28.48;6.65;;;9.60;99.90;;;;;;5069791;28;20480;-91